Wednesday, April 23, 2014, 12:56 PM EDT

KPHF, Williamsburg International Airport

Location: Newport News, VA, United States Lat: 37.133
Local Time: 12:56 PM EDT (16:56 GMT) Lon: -76.5
Time Zone: US/Eastern Elev: 42 ft

Show me the last for .
Show Decoded

2014-04-23 11:54 METAR KPHF 231554Z 35011G22KT 10SM CLR 19/01 A2978 RMK AO2 SLP085 T01940011 =
2014-04-23 10:54 METAR KPHF 231454Z 32010G24KT 290V350 10SM CLR 19/01 A2979 RMK AO2 SLP085
                 T01890011 51011 =
2014-04-23 09:54 METAR KPHF 231354Z 35015G26KT 10SM CLR 17/01 A2978 RMK AO2 PK WND 33026/1351
                 SLP084 T01670011 =
2014-04-23 08:54 METAR KPHF 231254Z 33019G27KT 10SM CLR 16/02 A2976 RMK AO2 PK WND 33027/1254
                 SLP077 T01610017 =
2014-04-23 07:54 METAR KPHF 231154Z 35013G20KT 330V030 10SM CLR 15/02 A2975 RMK AO2 SLP074
                 T01500022 10189 20139 52028 =
2014-04-23 06:54 METAR KPHF 231054Z 34010KT 10SM SCT065 14/03 A2973 RMK AO2 SLP065 T01390028 =
2014-04-23 05:54 METAR KPHF 230954Z 34009KT 10SM FEW021 15/05 A2970 RMK AO2 SLP055 T01500050 =
2014-04-23 04:54 METAR KPHF 230854Z 34010KT 10SM CLR 17/11 A2967 RMK AO2 SLP046 T01670106 53019 =
2014-04-23 03:54 METAR KPHF 230754Z 36010KT 10SM SCT065 SCT095 18/11 A2965 RMK AO2 SLP038
                 T01780111 =
2014-04-23 02:54 METAR KPHF 230654Z 35009G16KT 10SM CLR 18/12 A2962 RMK AO2 SLP030 T01830122 =
2014-04-23 01:54 METAR KPHF 230554Z 27005KT 10SM BKN110 19/13 A2961 RMK AO2 SLP027 T01890133
                 10228 20189 58002 =
2014-04-23 00:54 METAR KPHF 230454Z 27005KT 10SM SCT110 19/13 A2962 RMK AO2 SLP030 T01940128
                 402940078 =
2014-04-22 23:54 METAR KPHF 230354Z 23006KT 10SM BKN090 BKN110 20/13 A2962 RMK AO2 SLP029
                 T02000128 =
2014-04-22 22:54 METAR KPHF 230254Z 00000KT 10SM OVC085 19/12 A2962 RMK AO2 SLP030 T01940117
                 50004 =
2014-04-22 21:54 METAR KPHF 230154Z 00000KT 10SM SCT110 21/12 A2962 RMK AO2 SLP030 T02060117 =
2014-04-22 20:54 METAR KPHF 230054Z 00000KT 10SM FEW120 21/12 A2962 RMK AO2 SLP029 T02110122 =
2014-04-22 19:54 METAR KPHF 222354Z 00000KT 10SM SCT090 SCT110 23/12 A2961 RMK AO2 SLP026
                 T02280117 10294 20228 53003 =
2014-04-22 18:54 METAR KPHF 222254Z 01004KT 10SM OVC100 24/11 A2960 RMK AO2 SLP023 T02440106 =
2014-04-22 17:54 METAR KPHF 222154Z 34008KT 10SM FEW085 BKN110 26/10 A2960 RMK AO2 SLP023
                 T02610100 =
2014-04-22 16:54 METAR KPHF 222054Z 24006KT 10SM OVC085 28/09 A2960 RMK AO2 SLP023 T02780089
                 56021 =
2014-04-22 15:54 METAR KPHF 221954Z 25010G14KT 10SM CLR 29/09 A2961 RMK AO2 SLP026 T02940089 =
2014-04-22 14:54 METAR KPHF 221854Z 23010KT 10SM CLR 28/10 A2964 RMK AO2 SLP035 T02830100 =
2014-04-22 13:54 METAR KPHF 221754Z 23013KT 10SM CLR 27/10 A2966 RMK AO2 SLP044 T02720100 10272
                 20139 56028 =

Support USWX by starting your Amazon purchase here.